createdAt,value
2018-11-06T00:00:16.941Z,100.0
2018-11-06T00:01:16.982Z,100.0
2018-11-06T00:02:17.309Z,100.0
2018-11-06T00:03:16.613Z,100.0
2018-11-06T00:04:16.924Z,100.0
2018-11-06T00:05:17.258Z,100.0
2018-11-06T00:06:16.525Z,100.0
2018-11-06T00:07:16.804Z,100.0
2018-11-06T00:08:17.109Z,100.0
2018-11-06T00:09:16.550Z,100.0
2018-11-06T00:10:16.931Z,100.0
2018-11-06T00:11:16.958Z,100.0
2018-11-06T00:12:17.260Z,100.0
2018-11-06T00:13:16.570Z,100.0
2018-11-06T00:14:16.880Z,100.0
2018-11-06T00:15:17.183Z,100.0
2018-11-06T00:16:16.513Z,100.0
2018-11-06T00:17:16.846Z,100.0
2018-11-06T00:18:17.169Z,100.0
2018-11-06T00:19:16.466Z,100.0
2018-11-06T00:20:16.774Z,100.0
2018-11-06T00:21:16.864Z,100.0
2018-11-06T00:22:17.138Z,100.0
2018-11-06T00:23:16.418Z,100.0
2018-11-06T00:24:16.723Z,100.0
2018-11-06T00:25:17.019Z,100.0
2018-11-06T00:26:16.333Z,100.0
2018-11-06T00:27:16.640Z,100.0
2018-11-06T00:28:16.938Z,100.0
2018-11-06T00:29:17.239Z,100.0
2018-11-06T00:30:16.544Z,100.0
2018-11-06T00:31:16.606Z,100.0
2018-11-06T00:32:16.898Z,100.0
2018-11-06T00:33:17.224Z,100.0
2018-11-06T00:34:16.741Z,100.0
2018-11-06T00:35:17.107Z,100.0
2018-11-06T00:36:16.420Z,100.0
2018-11-06T00:37:16.727Z,100.0
2018-11-06T00:38:17.027Z,100.0
2018-11-06T00:39:16.329Z,100.0
2018-11-06T00:40:16.644Z,100.0
2018-11-06T00:41:16.690Z,100.0
2018-11-06T00:42:16.970Z,100.0
2018-11-06T00:43:17.284Z,100.0
2018-11-06T00:44:16.626Z,100.0
2018-11-06T00:45:16.969Z,100.0
2018-11-06T00:46:17.614Z,100.0
2018-11-06T00:47:16.911Z,100.0
2018-11-06T00:48:17.218Z,100.0
2018-11-06T00:49:16.505Z,100.0
2018-11-06T00:50:16.808Z,100.0
2018-11-06T00:51:16.873Z,100.0
2018-11-06T00:52:17.180Z,100.0
2018-11-06T00:53:16.486Z,100.0
2018-11-06T00:54:16.829Z,100.0
2018-11-06T00:55:17.156Z,100.0
2018-11-06T00:56:16.455Z,100.0
2018-11-06T00:57:16.770Z,100.0
2018-11-06T00:58:17.039Z,100.0
2018-11-06T00:59:16.351Z,100.0
2018-11-06T01:00:16.685Z,100.0
2018-11-06T01:01:16.763Z,100.0
2018-11-06T01:02:17.050Z,100.0
2018-11-06T01:03:16.380Z,100.0
2018-11-06T01:04:16.706Z,100.0
2018-11-06T01:05:17.013Z,100.0
2018-11-06T01:06:16.321Z,100.0
2018-11-06T01:07:16.685Z,100.0
2018-11-06T01:08:16.994Z,100.0
2018-11-06T01:09:16.292Z,100.0
2018-11-06T01:10:16.621Z,100.0
2018-11-06T01:11:16.687Z,100.0
2018-11-06T01:12:17.007Z,100.0
2018-11-06T01:13:16.308Z,100.0
2018-11-06T01:14:16.610Z,100.0
2018-11-06T01:15:16.915Z,100.0
2018-11-06T01:16:17.485Z,100.0
2018-11-06T01:17:16.801Z,100.0
2018-11-06T01:18:17.119Z,100.0
2018-11-06T01:19:16.428Z,100.0
2018-11-06T01:20:16.724Z,100.0
2018-11-06T01:21:16.780Z,100.0
2018-11-06T01:22:17.132Z,100.0
2018-11-06T01:23:16.438Z,100.0
2018-11-06T01:24:16.758Z,100.0
2018-11-06T01:25:17.097Z,100.0
2018-11-06T01:26:16.403Z,100.0
2018-11-06T01:27:16.723Z,100.0
2018-11-06T01:28:17.077Z,100.0
2018-11-06T01:29:16.394Z,100.0
2018-11-06T01:30:16.711Z,100.0
2018-11-06T01:31:16.771Z,100.0
2018-11-06T01:32:17.655Z,100.0
2018-11-06T01:33:16.960Z,100.0
2018-11-06T01:34:17.259Z,100.0
2018-11-06T01:35:16.580Z,100.0
2018-11-06T01:36:16.890Z,100.0
2018-11-06T01:37:17.192Z,100.0
2018-11-06T01:38:16.513Z,100.0
2018-11-06T01:39:16.840Z,100.0
2018-11-06T01:40:17.136Z,100.0
2018-11-06T01:41:17.175Z,100.0
2018-11-06T01:42:16.466Z,100.0
2018-11-06T01:43:16.789Z,100.0
2018-11-06T01:44:17.075Z,100.0
2018-11-06T01:45:16.393Z,100.0
2018-11-06T01:46:16.675Z,100.0
2018-11-06T01:47:16.997Z,100.0
2018-11-06T01:48:16.660Z,100.0
2018-11-06T01:49:16.994Z,100.0
2018-11-06T01:50:16.307Z,100.0
2018-11-06T01:51:16.331Z,100.0
2018-11-06T01:52:16.643Z,100.0
2018-11-06T01:53:16.961Z,100.0
2018-11-06T01:54:17.269Z,100.0
2018-11-06T01:55:16.584Z,100.0
2018-11-06T01:56:16.894Z,100.0
2018-11-06T01:57:17.186Z,100.0
2018-11-06T01:58:16.523Z,100.0
2018-11-06T01:59:16.817Z,100.0
2018-11-06T02:00:17.177Z,100.0
2018-11-06T02:01:17.180Z,100.0
2018-11-06T02:02:16.485Z,100.0
2018-11-06T02:03:16.754Z,100.0
2018-11-06T02:04:17.041Z,100.0
2018-11-06T02:05:16.348Z,100.0
2018-11-06T02:06:16.638Z,100.0
2018-11-06T02:07:16.913Z,100.0
2018-11-06T02:08:17.250Z,100.0
2018-11-06T02:09:16.543Z,100.0
2018-11-06T02:10:16.869Z,100.0
2018-11-06T02:11:16.907Z,100.0
2018-11-06T02:12:17.220Z,100.0
2018-11-06T02:13:16.517Z,100.0
2018-11-06T02:14:16.823Z,100.0
2018-11-06T02:15:17.125Z,100.0
2018-11-06T02:16:16.412Z,100.0
2018-11-06T02:17:16.706Z,100.0
2018-11-06T02:18:17.004Z,100.0
2018-11-06T02:19:16.303Z,100.0
2018-11-06T02:20:16.872Z,100.0
2018-11-06T02:21:16.671Z,100.0
2018-11-06T02:22:16.983Z,100.0
2018-11-06T02:23:17.329Z,100.0
2018-11-06T02:24:16.672Z,100.0
2018-11-06T02:25:16.998Z,100.0
2018-11-06T02:26:16.304Z,100.0
2018-11-06T02:27:16.609Z,100.0
2018-11-06T02:28:16.924Z,100.0
2018-11-06T02:29:17.258Z,100.0
2018-11-06T02:30:16.605Z,100.0
2018-11-06T02:31:16.629Z,100.0
2018-11-06T02:32:17.020Z,100.0
2018-11-06T02:33:16.364Z,100.0
2018-11-06T02:34:16.708Z,100.0
2018-11-06T02:35:17.050Z,100.0
2018-11-06T02:36:16.343Z,100.0
2018-11-06T02:37:16.632Z,100.0
2018-11-06T02:38:16.958Z,100.0
2018-11-06T02:39:17.269Z,100.0
2018-11-06T02:40:16.602Z,100.0
2018-11-06T02:41:16.634Z,100.0
2018-11-06T02:42:16.964Z,100.0
2018-11-06T02:43:17.588Z,100.0
2018-11-06T02:44:16.893Z,100.0
2018-11-06T02:45:17.202Z,100.0
2018-11-06T02:46:16.535Z,100.0
2018-11-06T02:47:16.829Z,100.0
2018-11-06T02:48:17.164Z,100.0
2018-11-06T02:49:16.458Z,100.0
2018-11-06T02:50:17.090Z,100.0
2018-11-06T02:51:16.792Z,100.0
2018-11-06T02:52:17.060Z,100.0
2018-11-06T02:53:16.390Z,100.0
2018-11-06T02:54:16.730Z,100.0
2018-11-06T02:55:17.053Z,100.0
2018-11-06T02:56:16.364Z,100.0
2018-11-06T02:57:16.692Z,100.0
2018-11-06T02:58:17.006Z,100.0
2018-11-06T02:59:16.314Z,100.0
2018-11-06T03:00:16.656Z,100.0
2018-11-06T03:01:16.661Z,100.0
2018-11-06T03:02:16.956Z,100.0
2018-11-06T03:03:17.272Z,100.0
2018-11-06T03:04:16.586Z,100.0
2018-11-06T03:05:16.892Z,100.0
2018-11-06T03:06:17.197Z,100.0
2018-11-06T03:07:16.510Z,100.0
2018-11-06T03:08:16.835Z,100.0
2018-11-06T03:09:17.140Z,100.0
2018-11-06T03:10:16.718Z,100.0
2018-11-06T03:11:16.519Z,100.0
2018-11-06T03:12:16.829Z,100.0
2018-11-06T03:13:17.470Z,100.0
2018-11-06T03:14:16.785Z,100.0
2018-11-06T03:15:17.116Z,100.0
2018-11-06T03:16:16.391Z,100.0
2018-11-06T03:17:16.662Z,100.0
2018-11-06T03:18:16.931Z,100.0
2018-11-06T03:19:17.226Z,100.0
2018-11-06T03:20:16.557Z,100.0
2018-11-06T03:21:16.559Z,100.0
2018-11-06T03:22:16.853Z,100.0
2018-11-06T03:23:17.191Z,100.0
2018-11-06T03:24:16.494Z,100.0
2018-11-06T03:25:16.802Z,100.0
2018-11-06T03:26:17.108Z,100.0
2018-11-06T03:27:16.411Z,100.0
2018-11-06T03:28:16.723Z,100.0
2018-11-06T03:29:17.038Z,100.0
2018-11-06T03:30:16.371Z,100.0
2018-11-06T03:31:16.414Z,100.0
2018-11-06T03:32:16.740Z,100.0
2018-11-06T03:33:17.092Z,100.0
2018-11-06T03:34:16.409Z,100.0
2018-11-06T03:35:16.732Z,100.0
2018-11-06T03:36:17.061Z,100.0
2018-11-06T03:37:16.387Z,100.0
2018-11-06T03:38:16.707Z,100.0
2018-11-06T03:39:17.028Z,100.0
2018-11-06T03:40:16.324Z,100.0
2018-11-06T03:41:16.364Z,100.0
2018-11-06T03:42:16.712Z,100.0
2018-11-06T03:43:17.025Z,100.0
2018-11-06T03:44:16.329Z,100.0
2018-11-06T03:45:16.649Z,100.0
2018-11-06T03:46:16.958Z,100.0
2018-11-06T03:47:17.257Z,100.0
2018-11-06T03:48:16.565Z,100.0
2018-11-06T03:49:16.863Z,100.0
2018-11-06T03:50:17.205Z,100.0
2018-11-06T03:51:17.298Z,100.0
2018-11-06T03:52:16.590Z,100.0
2018-11-06T03:53:16.897Z,100.0
2018-11-06T03:54:17.211Z,100.0
2018-11-06T03:55:16.522Z,100.0
2018-11-06T03:56:16.812Z,100.0
2018-11-06T03:57:17.071Z,100.0
2018-11-06T03:58:16.371Z,100.0
2018-11-06T03:59:16.677Z,100.0
2018-11-06T04:00:17.040Z,100.0
2018-11-06T04:01:17.037Z,100.0
2018-11-06T04:02:16.384Z,100.0
2018-11-06T04:03:16.674Z,100.0
2018-11-06T04:04:16.941Z,100.0
2018-11-06T04:05:17.263Z,100.0
2018-11-06T04:06:16.600Z,100.0
2018-11-06T04:07:16.903Z,100.0
2018-11-06T04:08:17.375Z,100.0
2018-11-06T04:09:16.687Z,100.0
2018-11-06T04:10:17.018Z,100.0
2018-11-06T04:11:17.067Z,100.0
2018-11-06T04:12:16.389Z,100.0
2018-11-06T04:13:16.727Z,100.0
2018-11-06T04:14:17.055Z,100.0
2018-11-06T04:15:16.367Z,100.0
2018-11-06T04:16:16.671Z,100.0
2018-11-06T04:17:17.011Z,100.0
2018-11-06T04:18:16.402Z,100.0
2018-11-06T04:19:16.673Z,100.0
2018-11-06T04:20:16.988Z,100.0
2018-11-06T04:21:17.052Z,100.0
2018-11-06T04:22:16.364Z,100.0
2018-11-06T04:23:16.734Z,100.0
2018-11-06T04:24:17.344Z,100.0
2018-11-06T04:25:16.643Z,100.0
2018-11-06T04:26:16.946Z,100.0
2018-11-06T04:27:17.259Z,100.0
2018-11-06T04:28:16.589Z,100.0
2018-11-06T04:29:16.897Z,100.0
2018-11-06T04:30:17.198Z,100.0
2018-11-06T04:31:17.248Z,100.0
2018-11-06T04:32:16.542Z,100.0
2018-11-06T04:33:16.821Z,100.0
2018-11-06T04:34:17.177Z,100.0
2018-11-06T04:35:16.457Z,100.0
2018-11-06T04:36:16.740Z,100.0
2018-11-06T04:37:17.051Z,100.0
2018-11-06T04:38:16.355Z,100.0
2018-11-06T04:39:16.656Z,100.0
2018-11-06T04:40:16.975Z,100.0
2018-11-06T04:41:17.059Z,100.0
2018-11-06T04:42:16.373Z,100.0
2018-11-06T04:43:16.691Z,100.0
2018-11-06T04:44:16.977Z,100.0
2018-11-06T04:45:17.283Z,100.0
2018-11-06T04:46:16.564Z,100.0
2018-11-06T04:47:16.839Z,100.0
2018-11-06T04:48:17.165Z,100.0
2018-11-06T04:49:16.472Z,100.0
2018-11-06T04:50:16.787Z,100.0
2018-11-06T04:51:16.832Z,100.0
2018-11-06T04:52:17.140Z,100.0
2018-11-06T04:53:16.461Z,100.0
2018-11-06T04:54:16.732Z,100.0
2018-11-06T04:55:17.046Z,100.0
2018-11-06T04:56:16.357Z,100.0
2018-11-06T04:57:16.637Z,100.0
2018-11-06T04:58:16.921Z,100.0
2018-11-06T04:59:17.291Z,100.0
2018-11-06T05:00:16.644Z,100.0
2018-11-06T05:01:16.665Z,100.0
2018-11-06T05:02:17.409Z,100.0
2018-11-06T05:03:16.843Z,100.0
2018-11-06T05:04:17.446Z,100.0
2018-11-06T05:05:16.747Z,100.0
2018-11-06T05:06:17.058Z,100.0
2018-11-06T05:07:16.372Z,100.0
2018-11-06T05:08:16.678Z,100.0
2018-11-06T05:09:16.979Z,100.0
2018-11-06T05:10:17.289Z,100.0
2018-11-06T05:11:16.347Z,100.0
2018-11-06T05:12:16.656Z,100.0
2018-11-06T05:13:16.968Z,100.0
2018-11-06T05:14:17.480Z,100.0
2018-11-06T05:15:16.837Z,100.0
2018-11-06T05:16:17.124Z,100.0
2018-11-06T05:17:16.464Z,100.0
2018-11-06T05:18:16.745Z,100.0
2018-11-06T05:19:17.033Z,100.0
2018-11-06T05:20:16.346Z,100.0
2018-11-06T05:21:16.404Z,100.0
2018-11-06T05:22:16.720Z,100.0
2018-11-06T05:23:17.017Z,100.0
2018-11-06T05:24:16.335Z,100.0
2018-11-06T05:25:16.737Z,100.0
2018-11-06T05:26:17.056Z,100.0
2018-11-06T05:27:16.458Z,100.0
2018-11-06T05:28:16.817Z,100.0
2018-11-06T05:29:17.121Z,100.0
2018-11-06T05:30:16.501Z,100.0
2018-11-06T05:31:16.476Z,100.0
2018-11-06T05:32:16.779Z,100.0
2018-11-06T05:33:17.083Z,100.0
2018-11-06T05:34:16.358Z,100.0
2018-11-06T05:35:16.657Z,100.0
2018-11-06T05:36:16.970Z,100.0
2018-11-06T05:37:17.271Z,100.0
2018-11-06T05:38:16.617Z,100.0
2018-11-06T05:39:17.128Z,100.0
2018-11-06T05:40:16.454Z,100.0
2018-11-06T05:41:16.516Z,100.0
2018-11-06T05:42:16.843Z,100.0
2018-11-06T05:43:17.133Z,100.0
2018-11-06T05:44:16.458Z,100.0
2018-11-06T05:45:16.765Z,100.0
2018-11-06T05:46:17.080Z,100.0
2018-11-06T05:47:16.427Z,100.0
2018-11-06T05:48:16.745Z,100.0
2018-11-06T05:49:17.015Z,100.0
2018-11-06T05:50:16.342Z,100.0
2018-11-06T05:51:16.419Z,100.0
2018-11-06T05:52:16.724Z,100.0
2018-11-06T05:53:17.216Z,100.0
2018-11-06T05:54:16.606Z,100.0
2018-11-06T05:55:16.905Z,100.0
2018-11-06T05:56:17.222Z,100.0
2018-11-06T05:57:16.503Z,100.0
2018-11-06T05:58:16.813Z,100.0
2018-11-06T05:59:17.815Z,100.0
2018-11-06T06:00:17.163Z,100.0
2018-11-06T06:01:17.161Z,100.0
2018-11-06T06:02:16.468Z,100.0
2018-11-06T06:03:16.780Z,100.0
2018-11-06T06:04:17.083Z,100.0
2018-11-06T06:05:16.382Z,100.0
2018-11-06T06:06:16.696Z,100.0
2018-11-06T06:07:16.976Z,100.0
2018-11-06T06:08:17.274Z,100.0
2018-11-06T06:09:16.587Z,100.0
2018-11-06T06:10:16.891Z,100.0
2018-11-06T06:11:17.329Z,100.0
2018-11-06T06:12:16.741Z,100.0
2018-11-06T06:13:17.031Z,100.0
2018-11-06T06:14:16.342Z,100.0
2018-11-06T06:15:16.641Z,100.0
2018-11-06T06:16:16.937Z,100.0
2018-11-06T06:17:17.401Z,100.0
2018-11-06T06:18:16.748Z,100.0
2018-11-06T06:19:17.081Z,100.0
2018-11-06T06:20:16.409Z,100.0
2018-11-06T06:21:16.448Z,100.0
2018-11-06T06:22:16.846Z,100.0
2018-11-06T06:23:17.152Z,100.0
2018-11-06T06:24:16.478Z,100.0
2018-11-06T06:25:16.790Z,100.0
2018-11-06T06:26:17.128Z,100.0
2018-11-06T06:27:16.476Z,100.0
2018-11-06T06:28:16.865Z,100.0
2018-11-06T06:29:17.204Z,100.0
2018-11-06T06:30:16.545Z,100.0
2018-11-06T06:31:16.580Z,100.0
2018-11-06T06:32:16.902Z,100.0
2018-11-06T06:33:17.255Z,100.0
2018-11-06T06:34:16.572Z,100.0
2018-11-06T06:35:17.177Z,100.0
2018-11-06T06:36:16.534Z,100.0
2018-11-06T06:37:16.833Z,100.0
2018-11-06T06:38:17.146Z,100.0
2018-11-06T06:39:16.463Z,100.0
2018-11-06T06:40:17.051Z,100.0
2018-11-06T06:41:16.809Z,100.0
2018-11-06T06:42:17.117Z,100.0
2018-11-06T06:43:16.440Z,100.0
2018-11-06T06:44:16.781Z,100.0
2018-11-06T06:45:17.094Z,100.0
2018-11-06T06:46:16.582Z,100.0
2018-11-06T06:47:16.960Z,100.0
2018-11-06T06:48:17.271Z,100.0
2018-11-06T06:49:16.543Z,100.0
2018-11-06T06:50:16.861Z,100.0
2018-11-06T06:51:16.885Z,100.0
2018-11-06T06:52:17.268Z,100.0
2018-11-06T06:53:16.583Z,100.0
2018-11-06T06:54:17.515Z,100.0
2018-11-06T06:55:17.717Z,100.0
2018-11-06T06:56:17.136Z,100.0
2018-11-06T06:57:16.452Z,100.0
2018-11-06T06:58:16.760Z,100.0
2018-11-06T06:59:17.051Z,100.0
2018-11-06T07:00:16.393Z,100.0
2018-11-06T07:01:16.444Z,100.0
2018-11-06T07:02:16.868Z,100.0
2018-11-06T07:03:17.183Z,100.0
2018-11-06T07:04:16.490Z,100.0
2018-11-06T07:05:16.827Z,100.0
2018-11-06T07:06:17.176Z,100.0
2018-11-06T07:07:16.511Z,100.0
2018-11-06T07:08:16.819Z,100.0
2018-11-06T07:09:17.133Z,100.0
2018-11-06T07:10:16.428Z,100.0
2018-11-06T07:11:16.513Z,100.0
2018-11-06T07:12:16.817Z,100.0
2018-11-06T07:13:17.120Z,100.0
2018-11-06T07:14:16.420Z,100.0
2018-11-06T07:15:16.726Z,100.0
2018-11-06T07:16:17.022Z,100.0
2018-11-06T07:17:16.303Z,100.0
2018-11-06T07:18:16.602Z,100.0
2018-11-06T07:19:16.892Z,100.0
2018-11-06T07:20:17.224Z,100.0
2018-11-06T07:21:17.251Z,100.0
2018-11-06T07:22:16.563Z,100.0
2018-11-06T07:23:16.872Z,100.0
2018-11-06T07:24:17.177Z,100.0
2018-11-06T07:25:16.527Z,100.0
2018-11-06T07:26:16.834Z,100.0
2018-11-06T07:27:17.133Z,100.0
2018-11-06T07:28:16.437Z,100.0
2018-11-06T07:29:16.747Z,100.0
2018-11-06T07:30:17.082Z,100.0
2018-11-06T07:31:17.127Z,100.0
2018-11-06T07:32:16.459Z,100.0
2018-11-06T07:33:16.801Z,100.0
2018-11-06T07:34:17.119Z,100.0
2018-11-06T07:35:16.711Z,100.0
2018-11-06T07:36:17.115Z,100.0
2018-11-06T07:37:16.404Z,100.0
2018-11-06T07:38:16.707Z,100.0
2018-11-06T07:39:17.015Z,100.0
2018-11-06T07:40:16.337Z,100.0
2018-11-06T07:41:16.648Z,100.0
2018-11-06T07:42:16.991Z,100.0
2018-11-06T07:43:16.321Z,100.0
2018-11-06T07:44:16.647Z,100.0
2018-11-06T07:45:16.952Z,100.0
2018-11-06T07:46:17.241Z,100.0
2018-11-06T07:47:16.528Z,100.0
2018-11-06T07:48:16.862Z,100.0
2018-11-06T07:49:17.204Z,100.0
2018-11-06T07:50:16.659Z,100.0
2018-11-06T07:51:16.554Z,100.0
2018-11-06T07:52:16.858Z,100.0
2018-11-06T07:53:17.170Z,100.0
2018-11-06T07:54:16.488Z,100.0
2018-11-06T07:55:16.839Z,100.0
2018-11-06T07:56:17.420Z,100.0
2018-11-06T07:57:16.889Z,100.0
2018-11-06T07:58:17.204Z,100.0
2018-11-06T07:59:16.500Z,100.0
2018-11-06T08:00:16.870Z,100.0
2018-11-06T08:01:16.870Z,100.0
2018-11-06T08:02:17.193Z,100.0
2018-11-06T08:03:16.502Z,100.0
2018-11-06T08:04:16.832Z,100.0
2018-11-06T08:05:17.173Z,100.0
2018-11-06T08:06:16.629Z,100.0
2018-11-06T08:07:16.969Z,100.0
2018-11-06T08:08:17.292Z,100.0
2018-11-06T08:09:16.612Z,100.0
2018-11-06T08:10:16.925Z,100.0
2018-11-06T08:11:16.988Z,100.0
2018-11-06T08:12:17.317Z,100.0
2018-11-06T08:13:16.645Z,100.0
2018-11-06T08:14:17.078Z,100.0
2018-11-06T08:15:16.683Z,100.0
2018-11-06T08:16:17.081Z,100.0
2018-11-06T08:17:16.372Z,100.0
2018-11-06T08:18:16.658Z,100.0
2018-11-06T08:19:16.966Z,100.0
2018-11-06T08:20:17.310Z,100.0
2018-11-06T08:21:16.328Z,100.0
2018-11-06T08:22:16.643Z,100.0
2018-11-06T08:23:16.946Z,100.0
2018-11-06T08:24:17.248Z,100.0
2018-11-06T08:25:16.564Z,100.0
2018-11-06T08:26:16.899Z,100.0
2018-11-06T08:27:17.235Z,100.0
2018-11-06T08:28:16.549Z,100.0
2018-11-06T08:29:16.891Z,100.0
2018-11-06T08:30:17.267Z,100.0
2018-11-06T08:31:18.096Z,100.0
2018-11-06T08:32:17.557Z,100.0
2018-11-06T08:33:17.248Z,100.0
2018-11-06T08:34:16.560Z,100.0
2018-11-06T08:35:16.937Z,100.0
2018-11-06T08:36:17.258Z,99.7
2018-11-06T08:37:16.616Z,99.7
2018-11-06T08:38:16.912Z,99.8
2018-11-06T08:39:17.186Z,99.6
2018-11-06T08:40:16.497Z,99.2
2018-11-06T08:41:16.538Z,99.0
2018-11-06T08:42:16.935Z,99.0
2018-11-06T08:43:17.258Z,99.6
2018-11-06T08:44:16.564Z,99.1
2018-11-06T08:45:16.879Z,98.8
2018-11-06T08:46:17.184Z,97.9
2018-11-06T08:47:16.498Z,97.9
2018-11-06T08:48:16.968Z,98.6
2018-11-06T08:49:17.289Z,98.3
2018-11-06T08:50:16.613Z,96.9
2018-11-06T08:51:16.676Z,96.1
2018-11-06T08:52:16.960Z,96.2
2018-11-06T08:53:17.288Z,96.2
2018-11-06T08:54:16.592Z,95.9
2018-11-06T08:55:16.894Z,95.8
2018-11-06T08:56:17.198Z,94.9
2018-11-06T08:57:16.507Z,93.9
2018-11-06T08:58:16.824Z,94.0
2018-11-06T08:59:17.146Z,94.3
2018-11-06T09:00:16.472Z,93.2
2018-11-06T09:01:16.920Z,92.9
2018-11-06T09:02:17.233Z,92.5
2018-11-06T09:03:16.542Z,92.7
2018-11-06T09:04:16.854Z,90.9
2018-11-06T09:05:17.177Z,92.6
2018-11-06T09:06:16.492Z,91.6
2018-11-06T09:07:16.810Z,91.0
2018-11-06T09:08:17.128Z,90.6
2018-11-06T09:09:16.420Z,90.7
2018-11-06T09:10:16.750Z,88.8
2018-11-06T09:11:16.768Z,87.9
2018-11-06T09:12:17.056Z,88.4
2018-11-06T09:13:16.359Z,88.2
2018-11-06T09:14:16.669Z,88.7
2018-11-06T09:15:16.985Z,88.7
2018-11-06T09:16:17.304Z,89.0
2018-11-06T09:17:16.650Z,87.2
2018-11-06T09:18:16.971Z,86.2
2018-11-06T09:19:17.278Z,86.4
2018-11-06T09:20:16.588Z,87.4
2018-11-06T09:21:16.612Z,87.9
2018-11-06T09:22:16.918Z,87.2
2018-11-06T09:23:17.221Z,85.0
2018-11-06T09:24:16.531Z,84.8
2018-11-06T09:25:16.819Z,85.4
2018-11-06T09:26:17.151Z,86.2
2018-11-06T09:27:16.459Z,85.2
2018-11-06T09:28:16.769Z,84.6
2018-11-06T09:29:17.059Z,85.1
2018-11-06T09:30:16.385Z,83.8
2018-11-06T09:31:16.440Z,83.5
2018-11-06T09:32:16.738Z,85.2
2018-11-06T09:33:17.048Z,84.6
2018-11-06T09:34:16.345Z,83.9
2018-11-06T09:35:16.842Z,83.2
2018-11-06T09:36:17.169Z,83.1
2018-11-06T09:37:16.473Z,82.9
2018-11-06T09:38:16.775Z,84.6
2018-11-06T09:39:17.086Z,84.7
2018-11-06T09:40:16.380Z,84.0
2018-11-06T09:41:16.546Z,85.0
2018-11-06T09:42:16.883Z,84.1
2018-11-06T09:43:17.235Z,83.6
2018-11-06T09:44:16.567Z,83.7
2018-11-06T09:45:16.985Z,81.3
2018-11-06T09:46:16.291Z,81.4
2018-11-06T09:47:16.651Z,81.0
2018-11-06T09:48:16.950Z,80.8
2018-11-06T09:49:17.225Z,80.2
2018-11-06T09:50:16.546Z,80.8
2018-11-06T09:51:16.574Z,80.3
2018-11-06T09:52:16.893Z,80.3
2018-11-06T09:53:17.187Z,79.9
2018-11-06T09:54:16.484Z,80.4
2018-11-06T09:55:16.785Z,80.0
2018-11-06T09:56:17.084Z,81.2
2018-11-06T09:57:16.407Z,80.5
2018-11-06T09:58:16.720Z,79.4
2018-11-06T09:59:17.022Z,79.0
2018-11-06T10:00:16.575Z,78.6
2018-11-06T10:01:16.434Z,77.4
2018-11-06T10:02:16.753Z,78.5
2018-11-06T10:03:17.091Z,77.0
2018-11-06T10:04:16.432Z,77.7
2018-11-06T10:05:16.745Z,77.0
2018-11-06T10:06:17.303Z,77.8
2018-11-06T10:07:17.655Z,76.5
2018-11-06T10:08:17.154Z,76.3
2018-11-06T10:09:16.591Z,76.8
2018-11-06T10:10:16.953Z,77.1
2018-11-06T10:11:16.994Z,74.3
2018-11-06T10:12:16.266Z,74.3
2018-11-06T10:13:16.609Z,75.2
2018-11-06T10:14:16.939Z,74.8
2018-11-06T10:15:17.256Z,74.3
2018-11-06T10:16:16.584Z,74.3
2018-11-06T10:17:16.915Z,75.7
2018-11-06T10:18:17.252Z,76.2
2018-11-06T10:19:16.543Z,75.4
2018-11-06T10:20:16.848Z,75.7
2018-11-06T10:21:17.169Z,75.3
2018-11-06T10:22:16.471Z,75.8
2018-11-06T10:23:16.794Z,76.5
2018-11-06T10:24:17.147Z,76.0
2018-11-06T10:25:16.456Z,75.3
2018-11-06T10:26:16.747Z,76.0
2018-11-06T10:27:17.037Z,74.3
2018-11-06T10:28:16.360Z,74.4
2018-11-06T10:29:16.681Z,73.6
2018-11-06T10:30:16.980Z,73.7
2018-11-06T10:31:17.075Z,73.7
2018-11-06T10:32:16.369Z,74.5
2018-11-06T10:33:16.669Z,73.8
2018-11-06T10:34:16.955Z,73.8
2018-11-06T10:35:17.268Z,73.7
2018-11-06T10:36:16.552Z,72.4
2018-11-06T10:37:16.832Z,72.4
2018-11-06T10:38:17.454Z,73.3
2018-11-06T10:39:16.856Z,73.8
2018-11-06T10:40:17.177Z,72.4
2018-11-06T10:41:17.227Z,73.8
2018-11-06T10:42:16.536Z,73.4
2018-11-06T10:43:16.866Z,73.4
2018-11-06T10:44:17.178Z,73.4
2018-11-06T10:45:16.461Z,72.1
2018-11-06T10:46:16.766Z,73.2
2018-11-06T10:47:17.073Z,72.7
2018-11-06T10:48:16.388Z,73.3
2018-11-06T10:49:16.700Z,72.9
2018-11-06T10:50:17.022Z,73.8
2018-11-06T10:51:17.057Z,73.2
2018-11-06T10:52:16.365Z,74.3
2018-11-06T10:53:16.667Z,73.3
2018-11-06T10:54:16.954Z,73.7
2018-11-06T10:55:17.252Z,72.0
2018-11-06T10:56:16.559Z,72.2
2018-11-06T10:57:16.895Z,71.7
2018-11-06T10:58:17.506Z,73.0
2018-11-06T10:59:16.992Z,72.2
2018-11-06T11:00:16.328Z,71.2
2018-11-06T11:01:16.369Z,71.5
2018-11-06T11:02:16.683Z,70.3
2018-11-06T11:03:17.033Z,71.1
2018-11-06T11:04:16.544Z,69.7
2018-11-06T11:05:16.964Z,69.1
2018-11-06T11:06:17.253Z,69.6
2018-11-06T11:07:16.553Z,71.5
2018-11-06T11:08:16.857Z,70.1
2018-11-06T11:09:17.185Z,69.7
2018-11-06T11:10:16.517Z,68.1
2018-11-06T11:11:16.542Z,69.0
2018-11-06T11:12:16.818Z,69.3
2018-11-06T11:13:17.249Z,69.0
2018-11-06T11:14:16.635Z,68.7
2018-11-06T11:15:16.972Z,68.8
2018-11-06T11:16:17.280Z,68.6
2018-11-06T11:17:16.569Z,67.5
2018-11-06T11:18:16.868Z,68.0
2018-11-06T11:19:17.167Z,67.7
2018-11-06T11:20:16.704Z,66.2
2018-11-06T11:21:16.524Z,67.0
2018-11-06T11:22:16.815Z,66.8
2018-11-06T11:23:17.140Z,66.9
2018-11-06T11:24:16.441Z,67.3
2018-11-06T11:25:16.761Z,67.9
2018-11-06T11:26:17.082Z,68.8
2018-11-06T11:27:16.395Z,69.0
2018-11-06T11:28:16.713Z,67.5
2018-11-06T11:29:17.043Z,68.1
2018-11-06T11:30:16.377Z,69.0
2018-11-06T11:31:16.410Z,67.0
2018-11-06T11:32:16.715Z,66.6
2018-11-06T11:33:17.029Z,66.8
2018-11-06T11:34:16.342Z,67.5
2018-11-06T11:35:16.639Z,67.7
2018-11-06T11:36:16.933Z,67.6
2018-11-06T11:37:17.220Z,68.7
2018-11-06T11:38:16.504Z,68.4
2018-11-06T11:39:16.780Z,66.6
2018-11-06T11:40:17.103Z,67.5
2018-11-06T11:41:17.137Z,67.6
2018-11-06T11:42:16.459Z,67.5
2018-11-06T11:43:16.758Z,69.2
2018-11-06T11:44:17.074Z,69.2
2018-11-06T11:45:16.418Z,70.4
2018-11-06T11:46:16.721Z,70.3
2018-11-06T11:47:17.031Z,67.3
2018-11-06T11:48:16.347Z,67.5
2018-11-06T11:49:16.659Z,67.6
2018-11-06T11:50:16.983Z,66.6
2018-11-06T11:51:17.006Z,66.9
2018-11-06T11:52:16.318Z,67.5
2018-11-06T11:53:16.627Z,67.8
2018-11-06T11:54:16.938Z,67.5
2018-11-06T11:55:17.440Z,67.8
2018-11-06T11:56:16.731Z,67.5
2018-11-06T11:57:17.007Z,68.8
2018-11-06T11:58:16.297Z,67.1
2018-11-06T11:59:16.597Z,67.1
2018-11-06T12:00:17.244Z,67.6
2018-11-06T12:01:16.966Z,67.4
2018-11-06T12:02:17.504Z,67.5
2018-11-06T12:03:16.884Z,68.0
2018-11-06T12:04:17.219Z,68.4
2018-11-06T12:05:16.545Z,68.3
2018-11-06T12:06:16.851Z,69.0
2018-11-06T12:07:17.166Z,68.4
2018-11-06T12:08:16.461Z,69.1
2018-11-06T12:09:16.765Z,68.8
2018-11-06T12:10:17.133Z,68.0
2018-11-06T12:11:17.123Z,68.3
2018-11-06T12:12:16.428Z,69.2
2018-11-06T12:13:16.738Z,70.6
2018-11-06T12:14:17.053Z,70.1
2018-11-06T12:15:16.380Z,70.0
2018-11-06T12:16:16.708Z,70.0
2018-11-06T12:17:17.121Z,70.3
2018-11-06T12:18:16.582Z,68.7
2018-11-06T12:19:16.973Z,68.0
2018-11-06T12:20:17.289Z,67.5
2018-11-06T12:21:16.391Z,70.2
2018-11-06T12:22:16.694Z,68.2
2018-11-06T12:23:17.046Z,69.4
2018-11-06T12:24:16.593Z,68.9
2018-11-06T12:25:17.795Z,70.0
2018-11-06T12:26:16.401Z,70.4
2018-11-06T12:27:16.810Z,68.4
2018-11-06T12:28:17.136Z,68.5
2018-11-06T12:29:16.426Z,70.6
2018-11-06T12:30:16.725Z,69.8
2018-11-06T12:31:16.781Z,70.3
2018-11-06T12:32:17.096Z,69.4
2018-11-06T12:33:16.444Z,68.3
2018-11-06T12:34:16.731Z,68.4
2018-11-06T12:35:17.056Z,70.2
2018-11-06T12:36:16.401Z,68.3
2018-11-06T12:37:16.720Z,68.9
2018-11-06T12:38:17.024Z,71.8
2018-11-06T12:39:16.302Z,71.2
2018-11-06T12:40:16.606Z,70.8
2018-11-06T12:41:16.702Z,69.3
2018-11-06T12:42:17.001Z,70.3
2018-11-06T12:43:16.333Z,71.1
2018-11-06T12:44:16.643Z,69.5
2018-11-06T12:45:16.945Z,70.6
2018-11-06T12:46:17.578Z,68.8
2018-11-06T12:47:16.891Z,69.0
2018-11-06T12:48:17.166Z,69.5
2018-11-06T12:49:16.495Z,68.3
2018-11-06T12:50:17.040Z,68.7
2018-11-06T12:51:16.847Z,69.2
2018-11-06T12:52:17.156Z,70.9
2018-11-06T12:53:16.455Z,69.7
2018-11-06T12:54:16.760Z,68.9
2018-11-06T12:55:17.092Z,68.9
2018-11-06T12:56:16.524Z,68.9
2018-11-06T12:57:16.938Z,67.6
2018-11-06T12:58:17.242Z,67.4
2018-11-06T12:59:16.541Z,67.1
2018-11-06T13:00:16.843Z,65.9
2018-11-06T13:01:16.903Z,67.4